INFORMACIÓN METAR y TAF
METAR FOR LEVX
ADDS - METARS form results

(1944 UTC 29 July 2021)
Data provider http://aviationweather.gov/metar/data/
 
METAR text: LEVX 291930Z 26011KT CAVOK 18/13 Q1016 NOSIG
Conditions at: LEVX (VIGO/PEINADOR , ES) observed 1930 UTC 29 July 2021
Temperature: 18.0°C (64°F)
Dewpoint: 13.0°C (55°F) [RH = 73%]
Pressure (altimeter): 30.00 inches Hg (1016.0 mb)
Winds: from the W (260 degrees) at 13 MPH (11 knots; 5.7 m/s)
Visibility: 6 or more miles (10+ km)
Ceiling: ceiling and visibility are OK
Clouds: unknown
Weather: no significant weather observed at this time

METAR text: LEVX 291900Z 26010KT 230V290 CAVOK 18/14 Q1016 NOSIG
Conditions at: LEVX (VIGO/PEINADOR , ES) observed 1900 UTC 29 July 2021
Temperature: 18.0°C (64°F)
Dewpoint: 14.0°C (57°F) [RH = 77%]
Pressure (altimeter): 30.00 inches Hg (1016.0 mb)
Winds: from the W (260 degrees) at 12 MPH (10 knots; 5.1 m/s)
Visibility: 6 or more miles (10+ km)
Ceiling: ceiling and visibility are OK
Clouds: unknown
Weather: no significant weather observed at this time

Forecast for: LEVX (VIGO/PEINADOR , ES)
Text: TAF LEVX 291700Z 2918/3018 VRB06KT 9999 FEW030 TX22/3014Z TN14/3006Z
Forecast period: 1800 UTC 29 July 2021 to 1800 UTC 30 July 2021
Forecast type: FROM: standard forecast or significant change
Winds: variable direction winds at 7 MPH (6 knots; 3.1 m/s)
Visibility: 6 or more miles (10+ km)
Ceiling: at least 12,000 feet AGL
Clouds: few clouds at 3000 feet AGL
Weather: no significant weather forecast for this period
Text: TEMPO 2918/2919 27010KT
Forecast period: 1800 to 1900 UTC 29 July 2021
Forecast type: TEMPORARY: The following changes expected for less than half the time period
Winds: from the W (270 degrees) at 12 MPH (10 knots; 5.1 m/s)
Visibility: missing
Ceiling: unknown
Clouds: missing
Weather: no significant weather forecast for this period
Text: TEMPO 3012/3018 27010KT
Forecast period: 1200 to 1800 UTC 30 July 2021
Forecast type: TEMPORARY: The following changes expected for less than half the time period
Winds: from the W (270 degrees) at 12 MPH (10 knots; 5.1 m/s)
Visibility: missing
Ceiling: unknown
Clouds: missing
Weather: no significant weather forecast for this period

 MAPA DE AEROPUERTO

 INFORMACIÓN DE PISTA
Pista 02 Longitud 7874 ft Ancho 148 ft
Elevación 855 ft Umbral desplazado 0 ft Rumbo de pista 11
Pista 20 Longitud 7874 ft Ancho 148 ft
Elevación 829 ft Umbral desplazado 0 ft Rumbo de pista 191

 FRECUANCIAS DEL AEROPUERTO
Tipo APP Nombre SANTIAGO A Frecuencia 120.2 MHZ
Tipo GND Nombre GND Frecuencia 121.7 MHZ
Tipo TWR Nombre TWR Frecuencia 118.45 MHZ

 RADIO AYUDAS DEL AEROPUERTO
Tipo VOR-DME Nombre Vigo Frecuencia 113600 KHZ
Tipo NDB Nombre Vigo Frecuencia 345 KHZ
Tipo NDB Nombre Vigo Frecuencia 433 KHZ



Powered by Virtual Airlines Manager [v2.6.2]